Mount Hulda, Missouri
Current Conditions -  °F | °C
As of 7:53 PM on Friday 24 Oct 2014 (Local Time) from KDMO Reporting Station
Clear Clear  
Wind Chill: 69°   Ceiling: Unl
Heat Index: 69°   Visibility: 10mi
Dew Point: 61°   Wind: 10mph
Humidity: 75%   Direction: 200°SSW
Pressure: 29.98"   Gusts: NA
Location:  38.4446°N, 93.178°W
Report Text: KDMO 250053Z AUTO 20009KT 10SM CLR 21/16 A2998 RMK AO2 SLP148 T02060161
Loading
Personal Weather Stations






























Interactive Weather Map
Tropical Storm Tracking
New forecast layout! Learn more

10-Day Weather Forecast

Advertisements
Track Severe Weather on mobile